Detall de PIREP

Printer-friendly versionPDF version

[2013/12/15 09:20:00]
Flight IATA:CT2310
Pilot Number:044
Company ICAO:CAT
Aircraft Type:BE20/A
PAX:4
Departing Airport: LIEA
Destination Airport: LIMC
Alternate Airport:LIMJ
Online: VATSIM
Route:POULP L42 AJO A9 TORTU M858 GEN
Flight Level:F140
No Slew and time accel
No pause
Crash detect
Detect pilot in Cockpit between each 30 and 45 minutes
09:20 Zero fuel Weight: 9316 Lbs, Fuel Weight: 2566 Lbs
09:20 VATSIM:LIEA 150850Z 24003KT 9999 OVC025 13/09 Q1032
09:20 VATSIM:LIMC 150850Z 31004KT 3000 BR NSC 03/02 Q1034 NOSIG
09:21 VOICE CATALONIAN
09:23 Parking Brakes off
09:30 Take-off
09:30 Take off Weight: 11855 Lbs
09:30 Wind: 240º @ 003 Knots Heading: 022º
09:30 POS N40º 38´ 08´´ E008º 17´ 33´´
09:30 Flaps:1 at 147 Knots
09:30 Gear Up: 140 Knots
09:30 Flaps:0 at 141 Knots
09:43 TOC
09:43 Fuel Weight: 2356 Lb
09:45 Wind:017º@002 Knots Heading: 019º Ground Speed:232 Knots Altitude 14520 ft
09:54 TOD
09:54 Fuel Weight: 2236 Lb
10:00 Wind:025º@006 Knots Heading: 003º Ground Speed: 231 Knots Altitude 14114 ft
10:15 Wind:016º@007 Knots Heading: 007º Ground Speed: 232 Knots Altitude 14120 ft
10:30 Wind:049º@013 Knots Heading: 006º Ground Speed: 215 Knots Altitude 11187 ft
10:45 Wind:230º@002 Knots Heading: 343º Ground Speed: 204 Knots Altitude 4173 ft
10:46 Flaps:1 at 167 Knots
10:51 Flaps:2 at 148 Knots
10:51 Gear Down: 144 Knots
10:55 TouchDown:Rate -160 ft/min Speed: 125 Knots
10:55 VATSIM:LIMC 151020Z VRB02KT 6000 SCT080 06/03 Q1034 NOSIG
10:55 Land
10:55 Wind:215º@001 Knots
10:55 Heading: 348º
10:55 Flight Duration: 01:25
10:55 Landing Weight: 10962 Lbs
10:55 POS N45º 38´ 21´´ E008º 43´ 50´´
10:59 Parking brakes on
10:59 Block to Block Duration: 01:36
10:59 Final Fuel: 1631 Lbls
10:59 Spent Fuel: 934 Lbls
10:59 Flight Length: 304 NM
10:59 TOD Land Length: 219 NM

Exportar CSV

Powered by Drupal - Modified by Danger4k